sensor_id;sensor_type;location;lat;lon;timestamp;P1;durP1;ratioP1;P2;durP2;ratioP2
45728;SDS011;31439;53.512;10.206;2023-07-24T00:01:17;4.60;;;3.00;;
45728;SDS011;31439;53.512;10.206;2023-07-24T00:03:43;4.78;;;2.97;;
45728;SDS011;31439;53.512;10.206;2023-07-24T00:06:09;3.92;;;2.90;;
45728;SDS011;31439;53.512;10.206;2023-07-24T00:08:35;3.67;;;3.20;;
45728;SDS011;31439;53.512;10.206;2023-07-24T00:11:00;4.43;;;3.03;;
45728;SDS011;31439;53.512;10.206;2023-07-24T00:13:29;3.55;;;2.92;;
45728;SDS011;31439;53.512;10.206;2023-07-24T00:15:55;4.53;;;3.20;;
45728;SDS011;31439;53.512;10.206;2023-07-24T00:18:21;6.20;;;3.53;;
45728;SDS011;31439;53.512;10.206;2023-07-24T00:20:47;4.90;;;3.00;;
45728;SDS011;31439;53.512;10.206;2023-07-24T00:23:13;5.13;;;3.55;;
45728;SDS011;31439;53.512;10.206;2023-07-24T00:25:38;3.85;;;3.33;;
45728;SDS011;31439;53.512;10.206;2023-07-24T00:28:04;4.43;;;3.00;;
45728;SDS011;31439;53.512;10.206;2023-07-24T00:30:29;4.63;;;3.10;;
45728;SDS011;31439;53.512;10.206;2023-07-24T00:32:55;5.00;;;3.08;;
45728;SDS011;31439;53.512;10.206;2023-07-24T00:35:20;3.80;;;2.97;;
45728;SDS011;31439;53.512;10.206;2023-07-24T00:37:46;4.05;;;2.97;;
45728;SDS011;31439;53.512;10.206;2023-07-24T00:40:12;4.07;;;3.03;;
45728;SDS011;31439;53.512;10.206;2023-07-24T00:42:37;3.88;;;3.08;;
45728;SDS011;31439;53.512;10.206;2023-07-24T00:45:03;5.10;;;2.90;;
45728;SDS011;31439;53.512;10.206;2023-07-24T00:47:29;3.58;;;2.83;;
45728;SDS011;31439;53.512;10.206;2023-07-24T00:49:54;4.53;;;2.92;;
45728;SDS011;31439;53.512;10.206;2023-07-24T00:52:21;3.42;;;2.90;;
45728;SDS011;31439;53.512;10.206;2023-07-24T00:54:47;5.85;;;3.05;;
45728;SDS011;31439;53.512;10.206;2023-07-24T00:57:13;4.63;;;3.28;;
45728;SDS011;31439;53.512;10.206;2023-07-24T00:59:39;3.40;;;2.88;;
45728;SDS011;31439;53.512;10.206;2023-07-24T01:02:07;4.32;;;3.15;;
45728;SDS011;31439;53.512;10.206;2023-07-24T01:04:33;3.92;;;3.03;;
45728;SDS011;31439;53.512;10.206;2023-07-24T01:06:58;4.95;;;3.22;;
45728;SDS011;31439;53.512;10.206;2023-07-24T01:09:24;4.60;;;3.17;;
45728;SDS011;31439;53.512;10.206;2023-07-24T01:11:52;5.63;;;3.10;;
45728;SDS011;31439;53.512;10.206;2023-07-24T01:17:10;4.35;;;3.28;;
45728;SDS011;31439;53.512;10.206;2023-07-24T01:19:41;6.63;;;3.47;;
45728;SDS011;31439;53.512;10.206;2023-07-24T01:25:05;5.50;;;3.42;;
45728;SDS011;31439;53.512;10.206;2023-07-24T01:27:45;4.45;;;3.30;;
45728;SDS011;31439;53.512;10.206;2023-07-24T01:30:11;5.18;;;3.20;;
45728;SDS011;31439;53.512;10.206;2023-07-24T01:32:39;4.65;;;3.40;;
45728;SDS011;31439;53.512;10.206;2023-07-24T01:35:05;5.53;;;3.50;;
45728;SDS011;31439;53.512;10.206;2023-07-24T01:37:31;6.40;;;3.35;;
45728;SDS011;31439;53.512;10.206;2023-07-24T01:39:59;4.93;;;3.60;;
45728;SDS011;31439;53.512;10.206;2023-07-24T01:42:25;4.22;;;3.13;;
45728;SDS011;31439;53.512;10.206;2023-07-24T01:44:54;6.05;;;3.75;;
45728;SDS011;31439;53.512;10.206;2023-07-24T01:47:20;4.53;;;3.60;;
45728;SDS011;31439;53.512;10.206;2023-07-24T01:49:46;5.85;;;3.45;;
45728;SDS011;31439;53.512;10.206;2023-07-24T01:52:12;5.00;;;3.75;;
45728;SDS011;31439;53.512;10.206;2023-07-24T01:54:38;4.82;;;3.60;;
45728;SDS011;31439;53.512;10.206;2023-07-24T01:57:04;4.93;;;3.30;;
45728;SDS011;31439;53.512;10.206;2023-07-24T01:59:30;4.65;;;3.58;;
45728;SDS011;31439;53.512;10.206;2023-07-24T02:01:55;5.20;;;3.40;;
45728;SDS011;31439;53.512;10.206;2023-07-24T02:04:21;4.43;;;3.35;;
45728;SDS011;31439;53.512;10.206;2023-07-24T02:06:47;4.32;;;3.58;;
45728;SDS011;31439;53.512;10.206;2023-07-24T02:09:13;5.65;;;3.97;;
45728;SDS011;31439;53.512;10.206;2023-07-24T02:11:39;5.20;;;3.38;;
45728;SDS011;31439;53.512;10.206;2023-07-24T02:14:05;4.80;;;3.72;;
45728;SDS011;31439;53.512;10.206;2023-07-24T02:16:31;4.70;;;3.78;;
45728;SDS011;31439;53.512;10.206;2023-07-24T02:18:56;3.92;;;3.20;;
45728;SDS011;31439;53.512;10.206;2023-07-24T02:21:22;5.40;;;3.40;;
45728;SDS011;31439;53.512;10.206;2023-07-24T02:23:47;4.28;;;3.30;;
45728;SDS011;31439;53.512;10.206;2023-07-24T02:26:13;4.15;;;3.33;;
45728;SDS011;31439;53.512;10.206;2023-07-24T02:28:38;4.80;;;3.95;;
45728;SDS011;31439;53.512;10.206;2023-07-24T02:31:04;4.93;;;3.53;;
45728;SDS011;31439;53.512;10.206;2023-07-24T02:33:30;4.80;;;3.80;;
45728;SDS011;31439;53.512;10.206;2023-07-24T02:35:55;5.25;;;3.60;;
45728;SDS011;31439;53.512;10.206;2023-07-24T02:38:21;5.03;;;3.75;;
45728;SDS011;31439;53.512;10.206;2023-07-24T02:40:46;4.65;;;3.47;;
45728;SDS011;31439;53.512;10.206;2023-07-24T02:43:12;4.13;;;3.20;;
45728;SDS011;31439;53.512;10.206;2023-07-24T02:45:37;4.75;;;3.63;;
45728;SDS011;31439;53.512;10.206;2023-07-24T02:48:03;5.38;;;4.05;;
45728;SDS011;31439;53.512;10.206;2023-07-24T02:50:29;5.70;;;3.55;;
45728;SDS011;31439;53.512;10.206;2023-07-24T02:52:55;6.07;;;3.35;;
45728;SDS011;31439;53.512;10.206;2023-07-24T02:55:20;6.72;;;3.60;;
45728;SDS011;31439;53.512;10.206;2023-07-24T02:57:46;5.25;;;3.80;;
45728;SDS011;31439;53.512;10.206;2023-07-24T03:00:12;6.28;;;3.60;;
45728;SDS011;31439;53.512;10.206;2023-07-24T03:02:38;5.00;;;3.80;;
45728;SDS011;31439;53.512;10.206;2023-07-24T03:05:04;4.57;;;3.50;;
45728;SDS011;31439;53.512;10.206;2023-07-24T03:07:30;5.13;;;3.67;;
45728;SDS011;31439;53.512;10.206;2023-07-24T03:09:56;4.20;;;3.38;;
45728;SDS011;31439;53.512;10.206;2023-07-24T03:12:22;6.25;;;4.07;;
45728;SDS011;31439;53.512;10.206;2023-07-24T03:14:47;5.22;;;4.03;;
45728;SDS011;31439;53.512;10.206;2023-07-24T03:17:13;5.80;;;3.60;;
45728;SDS011;31439;53.512;10.206;2023-07-24T03:19:39;5.57;;;3.83;;
45728;SDS011;31439;53.512;10.206;2023-07-24T03:22:06;7.55;;;4.30;;
45728;SDS011;31439;53.512;10.206;2023-07-24T03:24:31;6.40;;;4.10;;
45728;SDS011;31439;53.512;10.206;2023-07-24T03:26:57;6.47;;;4.57;;
45728;SDS011;31439;53.512;10.206;2023-07-24T03:29:22;6.18;;;3.80;;
45728;SDS011;31439;53.512;10.206;2023-07-24T03:31:48;4.57;;;3.58;;
45728;SDS011;31439;53.512;10.206;2023-07-24T03:34:14;5.35;;;3.90;;
45728;SDS011;31439;53.512;10.206;2023-07-24T03:36:39;5.97;;;3.80;;
45728;SDS011;31439;53.512;10.206;2023-07-24T03:39:07;5.47;;;4.10;;
45728;SDS011;31439;53.512;10.206;2023-07-24T03:41:34;5.95;;;4.30;;
45728;SDS011;31439;53.512;10.206;2023-07-24T03:43:59;5.22;;;4.00;;
45728;SDS011;31439;53.512;10.206;2023-07-24T03:46:25;6.40;;;4.10;;
45728;SDS011;31439;53.512;10.206;2023-07-24T03:48:51;7.85;;;4.10;;
45728;SDS011;31439;53.512;10.206;2023-07-24T03:51:16;5.55;;;3.90;;
45728;SDS011;31439;53.512;10.206;2023-07-24T03:53:42;5.68;;;4.05;;
45728;SDS011;31439;53.512;10.206;2023-07-24T03:56:07;5.18;;;4.10;;
45728;SDS011;31439;53.512;10.206;2023-07-24T03:58:33;4.82;;;3.88;;
45728;SDS011;31439;53.512;10.206;2023-07-24T04:01:03;4.95;;;3.88;;
45728;SDS011;31439;53.512;10.206;2023-07-24T04:03:29;5.63;;;4.18;;
45728;SDS011;31439;53.512;10.206;2023-07-24T04:05:55;5.15;;;4.20;;
45728;SDS011;31439;53.512;10.206;2023-07-24T04:08:25;5.85;;;4.32;;
45728;SDS011;31439;53.512;10.206;2023-07-24T04:10:51;4.80;;;3.85;;
45728;SDS011;31439;53.512;10.206;2023-07-24T04:13:17;5.70;;;4.40;;
45728;SDS011;31439;53.512;10.206;2023-07-24T04:15:43;6.20;;;4.55;;
45728;SDS011;31439;53.512;10.206;2023-07-24T04:18:09;7.07;;;3.97;;
45728;SDS011;31439;53.512;10.206;2023-07-24T04:20:35;5.63;;;4.25;;
45728;SDS011;31439;53.512;10.206;2023-07-24T04:23:01;5.35;;;4.20;;
45728;SDS011;31439;53.512;10.206;2023-07-24T04:25:29;7.82;;;4.50;;
45728;SDS011;31439;53.512;10.206;2023-07-24T04:27:55;5.47;;;4.25;;
45728;SDS011;31439;53.512;10.206;2023-07-24T04:30:20;5.70;;;4.10;;
45728;SDS011;31439;53.512;10.206;2023-07-24T04:32:46;6.65;;;4.40;;
45728;SDS011;31439;53.512;10.206;2023-07-24T04:35:11;7.07;;;4.55;;
45728;SDS011;31439;53.512;10.206;2023-07-24T04:37:40;6.80;;;4.47;;
45728;SDS011;31439;53.512;10.206;2023-07-24T04:40:06;5.13;;;4.57;;
45728;SDS011;31439;53.512;10.206;2023-07-24T04:42:32;7.22;;;4.28;;
45728;SDS011;31439;53.512;10.206;2023-07-24T04:44:57;6.53;;;4.40;;
45728;SDS011;31439;53.512;10.206;2023-07-24T04:47:23;6.25;;;4.40;;
45728;SDS011;31439;53.512;10.206;2023-07-24T04:49:48;6.85;;;4.65;;
45728;SDS011;31439;53.512;10.206;2023-07-24T04:52:14;6.18;;;4.47;;
45728;SDS011;31439;53.512;10.206;2023-07-24T04:54:40;5.05;;;4.47;;
45728;SDS011;31439;53.512;10.206;2023-07-24T04:57:05;5.75;;;5.05;;
45728;SDS011;31439;53.512;10.206;2023-07-24T04:59:31;7.68;;;4.40;;
45728;SDS011;31439;53.512;10.206;2023-07-24T05:01:56;6.32;;;4.65;;
45728;SDS011;31439;53.512;10.206;2023-07-24T05:04:22;6.07;;;4.47;;
45728;SDS011;31439;53.512;10.206;2023-07-24T05:06:48;6.20;;;4.53;;
45728;SDS011;31439;53.512;10.206;2023-07-24T05:09:13;5.93;;;4.47;;
45728;SDS011;31439;53.512;10.206;2023-07-24T05:11:39;6.22;;;4.78;;
45728;SDS011;31439;53.512;10.206;2023-07-24T05:14:07;39.88;;;7.28;;
45728;SDS011;31439;53.512;10.206;2023-07-24T05:16:32;7.72;;;4.53;;
45728;SDS011;31439;53.512;10.206;2023-07-24T05:18:58;11.85;;;5.28;;
45728;SDS011;31439;53.512;10.206;2023-07-24T05:21:23;14.55;;;5.50;;
45728;SDS011;31439;53.512;10.206;2023-07-24T05:23:49;16.27;;;5.90;;
45728;SDS011;31439;53.512;10.206;2023-07-24T05:26:14;8.43;;;4.57;;
45728;SDS011;31439;53.512;10.206;2023-07-24T05:28:40;7.88;;;4.93;;
45728;SDS011;31439;53.512;10.206;2023-07-24T05:31:05;9.30;;;4.78;;
45728;SDS011;31439;53.512;10.206;2023-07-24T05:33:32;23.70;;;5.50;;
45728;SDS011;31439;53.512;10.206;2023-07-24T05:35:58;6.38;;;5.13;;
45728;SDS011;31439;53.512;10.206;2023-07-24T05:38:25;7.95;;;4.38;;
45728;SDS011;31439;53.512;10.206;2023-07-24T05:40:55;10.88;;;5.38;;
45728;SDS011;31439;53.512;10.206;2023-07-24T05:43:21;7.35;;;4.63;;
45728;SDS011;31439;53.512;10.206;2023-07-24T05:45:46;8.00;;;4.38;;
45728;SDS011;31439;53.512;10.206;2023-07-24T05:48:12;9.25;;;4.63;;
45728;SDS011;31439;53.512;10.206;2023-07-24T05:50:37;11.60;;;5.75;;
45728;SDS011;31439;53.512;10.206;2023-07-24T05:53:03;5.82;;;4.30;;
45728;SDS011;31439;53.512;10.206;2023-07-24T05:55:29;7.63;;;4.20;;
45728;SDS011;31439;53.512;10.206;2023-07-24T05:57:54;6.95;;;4.20;;
45728;SDS011;31439;53.512;10.206;2023-07-24T06:00:20;10.43;;;4.22;;
45728;SDS011;31439;53.512;10.206;2023-07-24T06:02:45;14.32;;;4.32;;
45728;SDS011;31439;53.512;10.206;2023-07-24T06:05:11;9.32;;;4.45;;
45728;SDS011;31439;53.512;10.206;2023-07-24T06:07:36;7.35;;;4.00;;
45728;SDS011;31439;53.512;10.206;2023-07-24T06:10:02;8.38;;;3.92;;
45728;SDS011;31439;53.512;10.206;2023-07-24T06:12:28;7.85;;;4.20;;
45728;SDS011;31439;53.512;10.206;2023-07-24T06:14:54;24.88;;;5.72;;
45728;SDS011;31439;53.512;10.206;2023-07-24T06:17:19;8.70;;;4.20;;
45728;SDS011;31439;53.512;10.206;2023-07-24T06:19:45;5.32;;;3.60;;
45728;SDS011;31439;53.512;10.206;2023-07-24T06:22:10;7.70;;;4.10;;
45728;SDS011;31439;53.512;10.206;2023-07-24T06:24:36;8.55;;;3.80;;
45728;SDS011;31439;53.512;10.206;2023-07-24T06:27:03;5.68;;;4.03;;
45728;SDS011;31439;53.512;10.206;2023-07-24T06:29:31;5.40;;;3.83;;
45728;SDS011;31439;53.512;10.206;2023-07-24T06:31:57;7.65;;;3.83;;
45728;SDS011;31439;53.512;10.206;2023-07-24T06:34:22;6.45;;;3.90;;
45728;SDS011;31439;53.512;10.206;2023-07-24T06:36:48;5.63;;;3.63;;
45728;SDS011;31439;53.512;10.206;2023-07-24T06:39:14;4.47;;;3.30;;
45728;SDS011;31439;53.512;10.206;2023-07-24T06:41:39;5.22;;;4.00;;
45728;SDS011;31439;53.512;10.206;2023-07-24T06:44:05;5.40;;;3.92;;
45728;SDS011;31439;53.512;10.206;2023-07-24T06:46:30;4.88;;;3.72;;
45728;SDS011;31439;53.512;10.206;2023-07-24T06:48:56;5.68;;;3.67;;
45728;SDS011;31439;53.512;10.206;2023-07-24T06:51:21;4.50;;;3.67;;
45728;SDS011;31439;53.512;10.206;2023-07-24T06:53:47;4.45;;;3.50;;
45728;SDS011;31439;53.512;10.206;2023-07-24T06:56:13;4.43;;;3.33;;
45728;SDS011;31439;53.512;10.206;2023-07-24T06:58:38;4.32;;;3.60;;
45728;SDS011;31439;53.512;10.206;2023-07-24T07:01:07;4.13;;;3.03;;
45728;SDS011;31439;53.512;10.206;2023-07-24T07:03:33;4.18;;;3.42;;
45728;SDS011;31439;53.512;10.206;2023-07-24T07:06:01;4.30;;;3.20;;
45728;SDS011;31439;53.512;10.206;2023-07-24T07:08:28;26.05;;;5.13;;
45728;SDS011;31439;53.512;10.206;2023-07-24T07:11:00;12.13;;;3.83;;
45728;SDS011;31439;53.512;10.206;2023-07-24T07:13:26;5.35;;;3.20;;
45728;SDS011;31439;53.512;10.206;2023-07-24T07:15:52;7.85;;;3.47;;
45728;SDS011;31439;53.512;10.206;2023-07-24T07:18:18;6.85;;;3.28;;
45728;SDS011;31439;53.512;10.206;2023-07-24T07:20:47;9.18;;;3.47;;
45728;SDS011;31439;53.512;10.206;2023-07-24T07:23:13;10.38;;;4.05;;
45728;SDS011;31439;53.512;10.206;2023-07-24T07:25:39;7.68;;;3.33;;
45728;SDS011;31439;53.512;10.206;2023-07-24T07:28:05;5.68;;;3.65;;
45728;SDS011;31439;53.512;10.206;2023-07-24T07:30:31;3.40;;;2.92;;
45728;SDS011;31439;53.512;10.206;2023-07-24T07:32:56;5.70;;;3.20;;
45728;SDS011;31439;53.512;10.206;2023-07-24T07:35:22;4.93;;;3.30;;
45728;SDS011;31439;53.512;10.206;2023-07-24T07:37:47;4.20;;;3.10;;
45728;SDS011;31439;53.512;10.206;2023-07-24T07:40:13;4.35;;;3.22;;
45728;SDS011;31439;53.512;10.206;2023-07-24T07:42:38;5.00;;;3.60;;
45728;SDS011;31439;53.512;10.206;2023-07-24T07:45:04;4.38;;;3.42;;
45728;SDS011;31439;53.512;10.206;2023-07-24T07:47:30;3.90;;;3.30;;
45728;SDS011;31439;53.512;10.206;2023-07-24T07:49:56;4.90;;;3.05;;
45728;SDS011;31439;53.512;10.206;2023-07-24T07:52:21;5.60;;;3.58;;
45728;SDS011;31439;53.512;10.206;2023-07-24T07:54:50;4.65;;;3.58;;
45728;SDS011;31439;53.512;10.206;2023-07-24T07:57:16;4.97;;;3.40;;
45728;SDS011;31439;53.512;10.206;2023-07-24T07:59:41;3.88;;;2.90;;
45728;SDS011;31439;53.512;10.206;2023-07-24T08:02:07;4.93;;;2.97;;
45728;SDS011;31439;53.512;10.206;2023-07-24T08:04:33;3.78;;;3.10;;
45728;SDS011;31439;53.512;10.206;2023-07-24T08:06:58;4.70;;;3.53;;
45728;SDS011;31439;53.512;10.206;2023-07-24T08:09:24;4.75;;;3.20;;
45728;SDS011;31439;53.512;10.206;2023-07-24T08:11:50;5.00;;;3.53;;
45728;SDS011;31439;53.512;10.206;2023-07-24T08:14:16;4.07;;;3.10;;
45728;SDS011;31439;53.512;10.206;2023-07-24T08:16:42;4.65;;;4.00;;
45728;SDS011;31439;53.512;10.206;2023-07-24T08:19:08;4.55;;;3.67;;
45728;SDS011;31439;53.512;10.206;2023-07-24T08:21:34;5.10;;;3.78;;
45728;SDS011;31439;53.512;10.206;2023-07-24T08:24:00;5.97;;;4.07;;
45728;SDS011;31439;53.512;10.206;2023-07-24T08:26:27;6.70;;;4.30;;
45728;SDS011;31439;53.512;10.206;2023-07-24T08:28:52;4.95;;;3.92;;
45728;SDS011;31439;53.512;10.206;2023-07-24T08:31:18;5.65;;;4.25;;
45728;SDS011;31439;53.512;10.206;2023-07-24T08:33:44;5.43;;;4.30;;
45728;SDS011;31439;53.512;10.206;2023-07-24T08:36:09;4.68;;;4.15;;
45728;SDS011;31439;53.512;10.206;2023-07-24T08:38:37;5.60;;;4.15;;
45728;SDS011;31439;53.512;10.206;2023-07-24T08:41:12;5.47;;;3.95;;
45728;SDS011;31439;53.512;10.206;2023-07-24T08:43:40;5.72;;;4.10;;
45728;SDS011;31439;53.512;10.206;2023-07-24T08:46:07;5.13;;;4.10;;
45728;SDS011;31439;53.512;10.206;2023-07-24T08:48:34;4.43;;;3.78;;
45728;SDS011;31439;53.512;10.206;2023-07-24T08:51:05;5.65;;;4.28;;
45728;SDS011;31439;53.512;10.206;2023-07-24T08:53:35;7.93;;;3.85;;
45728;SDS011;31439;53.512;10.206;2023-07-24T08:56:06;9.50;;;4.38;;
45728;SDS011;31439;53.512;10.206;2023-07-24T08:58:33;5.05;;;3.95;;
45728;SDS011;31439;53.512;10.206;2023-07-24T09:01:00;8.80;;;4.65;;
45728;SDS011;31439;53.512;10.206;2023-07-24T09:03:26;8.02;;;4.00;;
45728;SDS011;31439;53.512;10.206;2023-07-24T09:05:53;12.45;;;5.20;;
45728;SDS011;31439;53.512;10.206;2023-07-24T09:08:31;7.45;;;4.57;;
45728;SDS011;31439;53.512;10.206;2023-07-24T09:11:08;6.55;;;4.07;;
45728;SDS011;31439;53.512;10.206;2023-07-24T09:13:35;5.20;;;4.40;;
45728;SDS011;31439;53.512;10.206;2023-07-24T09:16:02;5.63;;;4.10;;
45728;SDS011;31439;53.512;10.206;2023-07-24T09:18:49;5.38;;;4.15;;
45728;SDS011;31439;53.512;10.206;2023-07-24T09:21:16;6.25;;;4.55;;
45728;SDS011;31439;53.512;10.206;2023-07-24T09:23:52;5.35;;;4.47;;
45728;SDS011;31439;53.512;10.206;2023-07-24T09:26:18;5.32;;;4.45;;
45728;SDS011;31439;53.512;10.206;2023-07-24T09:28:50;5.50;;;4.15;;
45728;SDS011;31439;53.512;10.206;2023-07-24T09:31:19;5.45;;;4.30;;
45728;SDS011;31439;53.512;10.206;2023-07-24T09:33:45;5.38;;;4.47;;
45728;SDS011;31439;53.512;10.206;2023-07-24T09:36:11;5.30;;;4.45;;
45728;SDS011;31439;53.512;10.206;2023-07-24T09:38:37;5.13;;;4.45;;
45728;SDS011;31439;53.512;10.206;2023-07-24T09:41:04;5.70;;;4.80;;
45728;SDS011;31439;53.512;10.206;2023-07-24T09:43:30;5.13;;;4.63;;
45728;SDS011;31439;53.512;10.206;2023-07-24T09:45:57;5.68;;;5.07;;
45728;SDS011;31439;53.512;10.206;2023-07-24T09:48:26;6.22;;;4.82;;
45728;SDS011;31439;53.512;10.206;2023-07-24T09:50:55;7.47;;;5.05;;
45728;SDS011;31439;53.512;10.206;2023-07-24T09:55:57;6.05;;;5.45;;
45728;SDS011;31439;53.512;10.206;2023-07-24T09:58:24;8.68;;;5.85;;
45728;SDS011;31439;53.512;10.206;2023-07-24T10:00:51;7.57;;;6.65;;
45728;SDS011;31439;53.512;10.206;2023-07-24T10:03:17;7.18;;;6.18;;
45728;SDS011;31439;53.512;10.206;2023-07-24T10:05:45;7.22;;;6.10;;
45728;SDS011;31439;53.512;10.206;2023-07-24T10:08:11;7.57;;;6.43;;
45728;SDS011;31439;53.512;10.206;2023-07-24T10:10:43;6.78;;;5.93;;
45728;SDS011;31439;53.512;10.206;2023-07-24T10:13:10;7.57;;;6.10;;
45728;SDS011;31439;53.512;10.206;2023-07-24T10:15:39;6.43;;;5.80;;
45728;SDS011;31439;53.512;10.206;2023-07-24T10:18:06;8.52;;;6.05;;
45728;SDS011;31439;53.512;10.206;2023-07-24T10:20:39;8.95;;;6.38;;
45728;SDS011;31439;53.512;10.206;2023-07-24T10:23:07;10.00;;;6.32;;
45728;SDS011;31439;53.512;10.206;2023-07-24T10:25:35;9.07;;;6.70;;
45728;SDS011;31439;53.512;10.206;2023-07-24T10:28:03;12.05;;;6.50;;
45728;SDS011;31439;53.512;10.206;2023-07-24T10:30:32;8.20;;;6.40;;
45728;SDS011;31439;53.512;10.206;2023-07-24T10:33:06;9.27;;;6.82;;
45728;SDS011;31439;53.512;10.206;2023-07-24T10:35:43;10.45;;;6.88;;
45728;SDS011;31439;53.512;10.206;2023-07-24T10:38:11;9.52;;;6.65;;
45728;SDS011;31439;53.512;10.206;2023-07-24T10:40:39;8.48;;;6.60;;
45728;SDS011;31439;53.512;10.206;2023-07-24T10:43:14;11.35;;;7.20;;
45728;SDS011;31439;53.512;10.206;2023-07-24T10:45:46;7.97;;;6.53;;
45728;SDS011;31439;53.512;10.206;2023-07-24T10:48:14;8.20;;;7.30;;
45728;SDS011;31439;53.512;10.206;2023-07-24T10:50:45;8.32;;;6.85;;
45728;SDS011;31439;53.512;10.206;2023-07-24T10:53:13;7.75;;;6.95;;
45728;SDS011;31439;53.512;10.206;2023-07-24T10:55:43;8.70;;;7.70;;
45728;SDS011;31439;53.512;10.206;2023-07-24T10:58:12;8.32;;;7.40;;
45728;SDS011;31439;53.512;10.206;2023-07-24T11:00:39;8.45;;;7.55;;
45728;SDS011;31439;53.512;10.206;2023-07-24T11:03:07;10.02;;;7.93;;
45728;SDS011;31439;53.512;10.206;2023-07-24T11:05:41;14.52;;;7.82;;
45728;SDS011;31439;53.512;10.206;2023-07-24T11:08:20;15.80;;;8.23;;
45728;SDS011;31439;53.512;10.206;2023-07-24T11:10:46;11.48;;;7.28;;
45728;SDS011;31439;53.512;10.206;2023-07-24T11:13:25;7.03;;;5.40;;
45728;SDS011;31439;53.512;10.206;2023-07-24T11:15:52;6.68;;;5.63;;
45728;SDS011;31439;53.512;10.206;2023-07-24T11:18:19;8.52;;;5.60;;
45728;SDS011;31439;53.512;10.206;2023-07-24T11:20:51;7.13;;;5.63;;
45728;SDS011;31439;53.512;10.206;2023-07-24T11:23:20;10.88;;;6.60;;
45728;SDS011;31439;53.512;10.206;2023-07-24T11:25:46;9.52;;;6.38;;
45728;SDS011;31439;53.512;10.206;2023-07-24T11:28:12;6.70;;;5.88;;
45728;SDS011;31439;53.512;10.206;2023-07-24T11:30:39;7.60;;;6.10;;
45728;SDS011;31439;53.512;10.206;2023-07-24T11:33:06;8.45;;;6.15;;
45728;SDS011;31439;53.512;10.206;2023-07-24T11:35:33;11.82;;;6.60;;
45728;SDS011;31439;53.512;10.206;2023-07-24T11:38:00;6.75;;;6.07;;
45728;SDS011;31439;53.512;10.206;2023-07-24T11:40:40;6.80;;;6.20;;
45728;SDS011;31439;53.512;10.206;2023-07-24T11:43:23;6.80;;;6.10;;
45728;SDS011;31439;53.512;10.206;2023-07-24T11:57:59;7.05;;;6.38;;
45728;SDS011;31439;53.512;10.206;2023-07-24T12:00:26;7.63;;;6.82;;
45728;SDS011;31439;53.512;10.206;2023-07-24T12:02:53;7.53;;;6.78;;
45728;SDS011;31439;53.512;10.206;2023-07-24T12:05:37;6.70;;;6.10;;
45728;SDS011;31439;53.512;10.206;2023-07-24T12:08:34;6.95;;;6.25;;
45728;SDS011;31439;53.512;10.206;2023-07-24T12:11:00;6.65;;;5.95;;
45728;SDS011;31439;53.512;10.206;2023-07-24T12:13:27;5.95;;;5.35;;
45728;SDS011;31439;53.512;10.206;2023-07-24T12:15:53;5.60;;;5.10;;
45728;SDS011;31439;53.512;10.206;2023-07-24T12:18:19;5.80;;;4.93;;
45728;SDS011;31439;53.512;10.206;2023-07-24T12:20:45;7.43;;;4.90;;
45728;SDS011;31439;53.512;10.206;2023-07-24T12:23:10;6.85;;;6.00;;
45728;SDS011;31439;53.512;10.206;2023-07-24T12:25:36;6.13;;;4.63;;
45728;SDS011;31439;53.512;10.206;2023-07-24T12:28:02;4.78;;;4.28;;
45728;SDS011;31439;53.512;10.206;2023-07-24T12:30:27;6.70;;;5.07;;
45728;SDS011;31439;53.512;10.206;2023-07-24T12:32:53;6.18;;;3.83;;
45728;SDS011;31439;53.512;10.206;2023-07-24T12:35:18;4.53;;;3.70;;
45728;SDS011;31439;53.512;10.206;2023-07-24T12:37:44;5.90;;;3.85;;
45728;SDS011;31439;53.512;10.206;2023-07-24T12:40:11;5.38;;;3.45;;
45728;SDS011;31439;53.512;10.206;2023-07-24T12:42:36;5.55;;;3.58;;
45728;SDS011;31439;53.512;10.206;2023-07-24T12:45:02;3.92;;;3.53;;
45728;SDS011;31439;53.512;10.206;2023-07-24T12:47:28;3.60;;;3.20;;
45728;SDS011;31439;53.512;10.206;2023-07-24T12:49:55;3.75;;;3.30;;
45728;SDS011;31439;53.512;10.206;2023-07-24T12:52:21;4.20;;;3.22;;
45728;SDS011;31439;53.512;10.206;2023-07-24T12:54:47;6.25;;;4.00;;
45728;SDS011;31439;53.512;10.206;2023-07-24T12:57:12;4.07;;;3.38;;
45728;SDS011;31439;53.512;10.206;2023-07-24T12:59:38;4.07;;;3.15;;
45728;SDS011;31439;53.512;10.206;2023-07-24T13:02:03;5.63;;;3.20;;
45728;SDS011;31439;53.512;10.206;2023-07-24T13:04:29;4.57;;;3.38;;
45728;SDS011;31439;53.512;10.206;2023-07-24T13:06:55;3.90;;;3.35;;
45728;SDS011;31439;53.512;10.206;2023-07-24T13:09:20;4.55;;;3.58;;
45728;SDS011;31439;53.512;10.206;2023-07-24T13:11:46;3.63;;;3.10;;
45728;SDS011;31439;53.512;10.206;2023-07-24T13:14:13;4.90;;;3.50;;
45728;SDS011;31439;53.512;10.206;2023-07-24T13:16:39;7.55;;;3.38;;
45728;SDS011;31439;53.512;10.206;2023-07-24T13:19:05;3.75;;;2.97;;
45728;SDS011;31439;53.512;10.206;2023-07-24T13:21:31;5.25;;;3.33;;
45728;SDS011;31439;53.512;10.206;2023-07-24T13:23:56;3.95;;;3.25;;
45728;SDS011;31439;53.512;10.206;2023-07-24T13:26:22;4.90;;;3.53;;
45728;SDS011;31439;53.512;10.206;2023-07-24T13:28:48;4.03;;;3.33;;
45728;SDS011;31439;53.512;10.206;2023-07-24T13:31:14;3.45;;;3.03;;
45728;SDS011;31439;53.512;10.206;2023-07-24T13:33:43;6.47;;;3.65;;
45728;SDS011;31439;53.512;10.206;2023-07-24T13:36:09;16.65;;;4.15;;
45728;SDS011;31439;53.512;10.206;2023-07-24T13:38:35;5.82;;;3.33;;
45728;SDS011;31439;53.512;10.206;2023-07-24T13:41:01;4.60;;;3.13;;
45728;SDS011;31439;53.512;10.206;2023-07-24T13:43:27;4.40;;;3.25;;
45728;SDS011;31439;53.512;10.206;2023-07-24T13:45:53;4.40;;;2.83;;
45728;SDS011;31439;53.512;10.206;2023-07-24T13:48:19;6.53;;;3.45;;
45728;SDS011;31439;53.512;10.206;2023-07-24T13:50:44;11.57;;;3.72;;
45728;SDS011;31439;53.512;10.206;2023-07-24T13:53:10;41.10;;;7.25;;
45728;SDS011;31439;53.512;10.206;2023-07-24T13:55:37;31.83;;;5.97;;
45728;SDS011;31439;53.512;10.206;2023-07-24T13:58:02;16.95;;;4.78;;
45728;SDS011;31439;53.512;10.206;2023-07-24T14:00:28;5.80;;;3.08;;
45728;SDS011;31439;53.512;10.206;2023-07-24T14:02:54;3.53;;;3.20;;
45728;SDS011;31439;53.512;10.206;2023-07-24T14:05:19;7.85;;;3.50;;
45728;SDS011;31439;53.512;10.206;2023-07-24T14:07:45;19.05;;;4.80;;
45728;SDS011;31439;53.512;10.206;2023-07-24T14:10:10;15.93;;;4.57;;
45728;SDS011;31439;53.512;10.206;2023-07-24T14:12:36;15.90;;;4.93;;
45728;SDS011;31439;53.512;10.206;2023-07-24T14:15:02;7.55;;;4.00;;
45728;SDS011;31439;53.512;10.206;2023-07-24T14:17:28;5.57;;;3.75;;
45728;SDS011;31439;53.512;10.206;2023-07-24T14:19:54;4.18;;;3.50;;
45728;SDS011;31439;53.512;10.206;2023-07-24T14:22:19;4.80;;;3.33;;
45728;SDS011;31439;53.512;10.206;2023-07-24T14:24:45;4.45;;;3.40;;
45728;SDS011;31439;53.512;10.206;2023-07-24T14:27:11;4.40;;;3.30;;
45728;SDS011;31439;53.512;10.206;2023-07-24T14:29:38;5.00;;;3.60;;
45728;SDS011;31439;53.512;10.206;2023-07-24T14:32:04;5.78;;;3.70;;
45728;SDS011;31439;53.512;10.206;2023-07-24T14:34:30;3.92;;;3.25;;
45728;SDS011;31439;53.512;10.206;2023-07-24T14:36:55;4.18;;;3.78;;
45728;SDS011;31439;53.512;10.206;2023-07-24T14:39:21;5.38;;;4.00;;
45728;SDS011;31439;53.512;10.206;2023-07-24T14:41:46;4.55;;;3.65;;
45728;SDS011;31439;53.512;10.206;2023-07-24T14:44:12;7.82;;;3.90;;
45728;SDS011;31439;53.512;10.206;2023-07-24T14:46:38;13.18;;;4.28;;
45728;SDS011;31439;53.512;10.206;2023-07-24T14:49:03;11.23;;;4.28;;
45728;SDS011;31439;53.512;10.206;2023-07-24T14:51:29;20.05;;;5.55;;